Time;durP1;ratioP1;P1;durP2;ratioP2;P2;SDS_P1;SDS_P2;PMS_P1;PMS_P2;Temp;Humidity;BMP_temperature;BMP_pressure;BME280_temperature;BME280_humidity;BME280_pressure;Samples;Min_cycle;Max_cycle;Signal;HPM_P1;HPM_P2
2022/08/10 00:04:23;;;;;;;12.37;8.53;;;;;;;17.87;85.68;101280.27;2852274;82;20996;-63
2022/08/10 00:08:24;;;;;;;10.10;6.85;;;;;;;17.77;87.36;101280.32;2864159;82;20983;-62
2022/08/10 00:12:25;;;;;;;13.48;7.92;;;;;;;17.73;86.86;101277.10;2864573;83;20952;-62
2022/08/10 00:16:35;;;;;;;11.60;8.48;;;;;;;17.69;88.06;101267.64;2864758;83;20976;-63
2022/08/10 00:20:36;;;;;;;8.68;6.47;;;;;;;17.70;88.10;101266.12;2864562;83;21058;-63
2022/08/10 00:24:37;;;;;;;11.55;7.03;;;;;;;17.61;87.81;101261.66;2864508;83;21043;-62
2022/08/10 00:29:14;;;;;;;10.95;7.03;;;;;;;17.51;88.39;101264.37;2843864;83;21050;-64
2022/08/10 00:33:15;;;;;;;10.00;7.30;;;;;;;17.51;87.72;101267.07;2859330;83;21026;-64
2022/08/10 00:37:18;;;;;;;12.13;7.80;;;;;;;17.49;86.44;101270.89;2883578;82;21043;-63
2022/08/10 00:41:20;;;;;;;10.08;7.00;;;;;;;17.34;86.26;101277.25;2828027;83;21031;-62
2022/08/10 00:45:21;;;;;;;11.60;7.80;;;;;;;17.24;85.75;101274.08;2841773;83;21034;-63
2022/08/10 00:49:22;;;;;;;8.23;6.65;;;;;;;17.23;85.15;101273.72;2858087;82;20983;-62
2022/08/10 00:53:26;;;;;;;9.35;7.62;;;;;;;17.11;84.48;101269.53;2843974;83;21093;-62
2022/08/10 00:57:28;;;;;;;8.65;6.92;;;;;;;17.10;84.38;101259.26;2830094;83;21059;-62
2022/08/10 01:01:29;;;;;;;9.28;6.35;;;;;;;17.08;84.35;101262.59;2874575;82;21045;-67
2022/08/10 01:05:31;;;;;;;12.20;6.22;;;;;;;17.08;84.14;101263.94;2842203;83;21044;-63
2022/08/10 01:10:27;;;;;;;12.75;7.65;;;;;;;17.01;85.27;101256.59;2784543;84;21008;-63
2022/08/10 01:14:41;;;;;;;9.68;7.42;;;;;;;16.77;89.76;101261.39;2812731;84;21055;-68
2022/08/10 01:19:13;;;;;;;14.30;8.53;;;;;;;16.60;91.41;101261.62;2834071;84;21004;-62
2022/08/10 01:23:58;;;;;;;12.65;8.13;;;;;;;16.48;91.77;101263.60;2835063;84;21027;-65
2022/08/10 01:28:22;;;;;;;10.30;7.50;;;;;;;16.41;90.65;101268.68;2825355;83;21007;-63
2022/08/10 01:33:15;;;;;;;16.20;9.28;;;;;;;16.48;89.65;101272.14;2810817;84;21040;-62
2022/08/10 01:37:38;;;;;;;13.83;7.83;;;;;;;16.60;88.88;101276.39;2860226;82;21008;-64
2022/08/10 01:41:43;;;;;;;8.83;6.78;;;;;;;16.64;86.83;101272.42;2887825;81;21042;-66
2022/08/10 01:46:10;;;;;;;7.35;6.65;;;;;;;16.64;85.84;101281.00;2889361;81;20984;-62
2022/08/10 01:50:23;;;;;;;14.53;7.35;;;;;;;16.56;85.69;101276.33;2919561;81;20967;-63
2022/08/10 01:54:54;;;;;;;9.05;7.00;;;;;;;16.44;86.46;101264.88;2899693;82;21012;-65
2022/08/10 01:59:00;;;;;;;15.53;7.97;;;;;;;16.44;87.03;101273.41;2853763;81;20972;-62
2022/08/10 02:03:05;;;;;;;20.37;9.88;;;;;;;16.50;87.08;101273.70;2934655;81;20996;-63
2022/08/10 02:07:17;;;;;;;21.62;9.13;;;;;;;16.51;87.88;101274.56;2937676;80;20990;-64
2022/08/10 02:11:21;;;;;;;19.23;11.22;;;;;;;16.59;87.96;101277.86;2934703;81;21019;-63
2022/08/10 02:15:27;;;;;;;23.57;12.03;;;;;;;16.59;88.59;101276.04;2904677;81;21004;-64
2022/08/10 02:19:29;;;;;;;;;;;;;;;16.62;88.91;101272.23;2887710;81;21047;-64
2022/08/10 02:24:00;;;;;;;12.35;9.53;;;;;;;16.63;88.76;101272.08;2884598;82;20095;-62
2022/08/10 02:28:12;;;;;;;10.18;6.95;;;;;;;16.61;88.65;101278.09;2891972;81;21015;-63
2022/08/10 02:32:15;;;;;;;11.28;7.62;;;;;;;16.62;86.74;101284.33;2934801;81;21039;-63
2022/08/10 02:36:30;;;;;;;7.42;6.08;;;;;;;16.56;85.14;101280.36;2931857;81;21019;-63
2022/08/10 02:40:37;;;;;;;10.68;7.72;;;;;;;16.51;84.53;101272.72;2914792;81;21003;-63
2022/08/10 02:45:15;;;;;;;6.87;5.87;;;;;;;16.46;84.51;101276.80;2898614;81;21032;-66
2022/08/10 02:49:25;;;;;;;8.15;6.20;;;;;;;16.36;84.91;101274.97;2804387;83;20985;-63
2022/08/10 02:53:49;;;;;;;9.23;8.23;;;;;;;16.29;84.83;101281.87;2792644;84;20981;-64
2022/08/10 02:57:55;;;;;;;10.70;6.97;;;;;;;16.21;85.22;101274.53;2820152;84;21012;-67
2022/08/10 03:02:01;;;;;;;8.13;6.67;;;;;;;16.24;85.39;101282.78;2831818;83;21000;-62
2022/08/10 03:06:12;;;;;;;;;;;;;;;16.22;85.26;101278.05;2833991;84;21048;-68
2022/08/10 03:10:24;;;;;;;6.95;6.15;;;;;;;16.19;85.64;101283.70;2831732;84;20081;-63
2022/08/10 03:14:28;;;;;;;10.95;6.45;;;;;;;16.21;85.66;101287.95;2784506;84;20984;-65
2022/08/10 03:18:32;;;;;;;9.33;8.08;;;;;;;16.20;85.59;101290.25;2777340;83;20981;-62
2022/08/10 03:22:35;;;;;;;16.65;8.70;;;;;;;16.22;85.73;101291.47;2795593;84;21047;-62
2022/08/10 03:26:37;;;;;;;14.07;7.75;;;;;;;16.27;85.55;101290.56;2844604;83;21047;-62
2022/08/10 03:30:40;;;;;;;9.05;7.47;;;;;;;16.26;85.16;101284.83;2831011;83;21000;-62
2022/08/10 03:34:42;;;;;;;9.28;7.72;;;;;;;16.22;85.10;101294.16;2811035;84;21059;-63
2022/08/10 03:38:50;;;;;;;9.08;8.28;;;;;;;16.20;85.11;101286.73;2875704;82;21020;-63
2022/08/10 03:42:51;;;;;;;14.30;7.80;;;;;;;16.18;85.00;101296.77;2886409;82;21010;-62
2022/08/10 03:47:18;;;;;;;10.78;7.58;;;;;;;16.21;85.06;101289.78;2929582;81;20982;-62
2022/08/10 03:51:21;;;;;;;11.15;8.38;;;;;;;16.16;85.34;101292.03;2931348;81;21078;-61
2022/08/10 03:55:23;;;;;;;9.70;8.43;;;;;;;16.21;85.97;101297.83;2930027;81;21047;-62
2022/08/10 03:59:26;;;;;;;10.50;8.53;;;;;;;16.20;86.04;101293.45;2932285;79;21027;-62
2022/08/10 04:03:27;;;;;;;9.75;8.48;;;;;;;16.23;86.77;101298.54;2897519;81;21063;-61
2022/08/10 04:07:37;;;;;;;10.72;8.03;;;;;;;16.25;87.58;101308.64;2902288;81;20960;-64
2022/08/10 04:11:39;;;;;;;11.60;9.38;;;;;;;16.31;87.96;101304.56;2917063;81;21027;-62
2022/08/10 04:15:45;;;;;;;13.85;9.70;;;;;;;16.50;89.27;101305.93;2924793;81;20956;-62
2022/08/10 04:19:48;;;;;;;;;;;;;;;16.80;91.29;101309.49;2932704;81;21048;-61
2022/08/10 04:23:51;;;;;;;9.33;7.95;;;;;;;17.53;95.62;101308.11;2907163;81;20117;-65
2022/08/10 04:27:54;;;;;;;10.15;7.95;;;;;;;18.31;96.74;101307.91;2812239;80;73404;-95
2022/08/10 04:31:56;;;;;;;14.13;9.40;;;;;;;19.15;95.51;101303.12;2781828;84;21063;-93
2022/08/10 04:35:58;;;;;;;13.48;8.78;;;;;;;19.93;92.39;101304.59;2766420;84;21490;-93
2022/08/10 04:40:00;;;;;;;13.62;8.28;;;;;;;20.65;87.80;101301.39;2745188;84;20995;-90
2022/08/10 04:44:02;;;;;;;19.15;9.68;;;;;;;21.37;83.64;101299.84;2774338;84;21102;-94
2022/08/10 04:48:04;;;;;;;13.22;8.30;;;;;;;22.08;78.33;101299.59;2774087;84;20999;-92
2022/08/10 04:52:05;;;;;;;67.08;18.65;;;;;;;22.58;74.44;101306.94;2810782;82;21479;-92
2022/08/10 04:56:07;;;;;;;8.43;7.20;;;;;;;23.04;70.45;101301.98;2844634;82;21586;-92
2022/08/10 05:00:10;;;;;;;11.10;6.97;;;;;;;23.31;69.10;101307.03;2828961;82;21081;-93
2022/08/10 05:04:11;;;;;;;11.55;7.80;;;;;;;23.35;67.24;101311.05;2780883;84;21082;-93
2022/08/10 05:08:13;;;;;;;8.70;7.70;;;;;;;23.38;66.43;101311.53;2814420;84;21062;-94
2022/08/10 05:12:14;;;;;;;8.53;7.72;;;;;;;23.41;67.43;101311.69;2820357;82;21594;-94
2022/08/10 05:16:16;;;;;;;8.98;7.95;;;;;;;23.53;67.07;101315.60;2833086;80;21039;-93
2022/08/10 05:20:19;;;;;;;18.17;7.72;;;;;;;23.76;66.32;101322.80;2841143;82;21022;-93
2022/08/10 05:24:21;;;;;;;11.35;6.80;;;;;;;24.10;66.90;101320.03;2842449;82;21023;-94
2022/08/10 05:28:22;;;;;;;8.38;7.30;;;;;;;24.37;65.59;101323.08;2820560;82;22291;-95
2022/08/10 05:32:23;;;;;;;13.20;11.93;;;;;;;24.75;66.47;101319.75;2819728;82;21038;-94
2022/08/10 05:36:25;;;;;;;11.53;9.15;;;;;;;25.55;64.21;101316.02;2769283;82;21025;-93
2022/08/10 05:40:29;;;;;;;11.95;8.23;;;;;;;26.19;60.74;101320.31;2831017;82;21392;-95
2022/08/10 05:44:30;;;;;;;8.48;7.67;;;;;;;26.68;60.17;101323.46;2839880;82;21557;-94
2022/08/10 05:48:33;;;;;;;17.35;9.40;;;;;;;27.08;58.62;101318.05;2848472;82;21022;-92
2022/08/10 05:52:35;;;;;;;11.25;8.18;;;;;;;27.42;56.68;101323.48;2863296;81;20951;-91
2022/08/10 05:56:38;;;;;;;10.90;7.97;;;;;;;27.55;56.69;101328.11;2827661;83;21026;-91
2022/08/10 06:00:42;;;;;;;9.20;7.72;;;;;;;27.82;55.96;101323.91;2863459;82;21062;-93
2022/08/10 06:04:45;;;;;;;11.30;7.92;;;;;;;28.04;54.54;101328.02;2824709;82;20988;-92
2022/08/10 06:08:49;;;;;;;10.32;7.97;;;;;;;27.93;54.09;101328.72;2826978;82;21026;-93
2022/08/10 06:17:12;;;;;;;10.60;8.58;;;;;;;27.60;54.59;101322.83;2806921;82;21012;-92
2022/08/10 06:21:15;;;;;;;10.65;7.65;;;;;;;27.71;54.27;101319.95;2834218;82;21552;-94
2022/08/10 06:25:16;;;;;;;11.80;9.38;;;;;;;27.77;54.59;101325.41;2821434;82;22279;-92
2022/08/10 06:29:19;;;;;;;10.85;8.90;;;;;;;27.90;55.41;101326.39;2831023;82;21106;-92
2022/08/10 06:33:23;;;;;;;9.75;8.43;;;;;;;27.88;54.06;101327.14;2838335;82;21027;-94
2022/08/10 06:37:27;;;;;;;11.00;7.87;;;;;;;27.74;54.21;101323.62;2799915;84;21003;-93
2022/08/10 06:41:33;;;;;;;10.25;8.60;;;;;;;27.28;56.11;101325.37;2822895;82;21000;-92
2022/08/10 06:45:46;;;;;;;11.30;7.40;;;;;;;27.21;55.55;101333.57;2859429;82;21059;-91
2022/08/10 06:49:53;;;;;;;13.30;8.43;;;;;;;26.82;57.96;101330.62;2828429;82;21106;-93
2022/08/10 06:54:00;;;;;;;7.45;6.45;;;;;;;26.97;58.50;101329.08;2836262;82;21067;-92
2022/08/10 06:58:03;;;;;;;10.70;8.55;;;;;;;27.20;57.33;101330.02;2829541;82;21091;-95
2022/08/10 07:02:09;;;;;;;10.28;6.33;;;;;;;27.39;57.42;101324.74;2749162;85;21569;-92
2022/08/10 07:06:18;;;;;;;9.83;6.12;;;;;;;26.97;58.73;101326.89;2780925;84;21128;-95
2022/08/10 07:10:24;;;;;;;13.40;7.28;;;;;;;27.20;57.08;101323.19;2702055;85;21003;-93
2022/08/10 07:14:26;;;;;;;8.70;6.40;;;;;;;27.49;57.13;101328.40;2719659;85;21040;-94
2022/08/10 07:18:29;;;;;;;7.90;6.65;;;;;;;27.79;55.97;101327.39;2771886;84;21039;-90
2022/08/10 07:22:35;;;;;;;9.08;6.92;;;;;;;28.08;55.96;101331.98;2773264;84;21384;-93
2022/08/10 07:26:39;;;;;;;9.30;6.90;;;;;;;28.21;54.80;101334.39;2792660;84;21056;-93
2022/08/10 07:30:43;;;;;;;10.00;6.47;;;;;;;28.28;52.78;101334.36;2765728;84;21080;-95
2022/08/10 07:34:48;;;;;;;7.55;6.72;;;;;;;28.29;52.94;101335.48;2787434;84;21433;-93
2022/08/10 07:38:53;;;;;;;8.95;5.78;;;;;;;28.05;53.97;101332.43;2773545;85;21035;-91
2022/08/10 07:42:58;;;;;;;6.75;5.33;;;;;;;28.03;52.93;101330.45;2778109;84;22501;-93
2022/08/10 07:47:03;;;;;;;7.70;5.95;;;;;;;27.85;53.22;101335.77;2787634;84;22220;-92
2022/08/10 07:51:07;;;;;;;6.70;6.03;;;;;;;27.83;53.78;101334.64;2779943;84;20971;-92
2022/08/10 07:55:14;;;;;;;10.90;5.27;;;;;;;27.96;53.02;101336.48;2767255;84;21051;-92
2022/08/10 07:59:22;;;;;;;5.85;4.22;;;;;;;28.23;53.78;101335.01;2786065;84;21563;-93
2022/08/10 08:03:27;;;;;;;4.90;3.25;;;;;;;28.27;51.84;101334.87;2781214;84;21066;-94
2022/08/10 08:07:30;;;;;;;7.42;4.50;;;;;;;28.21;52.14;101329.77;2777814;84;21788;-89
2022/08/10 08:11:33;;;;;;;5.00;3.60;;;;;;;28.20;51.17;101328.09;2785439;84;21087;-93
2022/08/10 08:15:35;;;;;;;7.47;3.65;;;;;;;28.16;51.05;101326.02;2757667;84;21103;-94
2022/08/10 08:19:38;;;;;;;15.25;9.23;;;;;;;28.25;51.45;101324.69;2822017;82;21055;-93
2022/08/10 08:23:42;;;;;;;3.52;2.60;;;;;;;28.18;50.59;101324.71;2833112;83;21066;-94
2022/08/10 08:27:45;;;;;;;5.47;3.30;;;;;;;28.22;50.24;101320.51;2828781;83;21050;-91
2022/08/10 08:31:48;;;;;;;4.72;3.40;;;;;;;28.19;51.47;101325.56;2868862;82;21526;-94
2022/08/10 08:35:51;;;;;;;4.37;3.45;;;;;;;28.09;49.98;101332.30;2843168;82;21453;-95
2022/08/10 08:39:53;;;;;;;6.95;3.37;;;;;;;28.01;50.11;101331.73;2850855;82;21275;-93
2022/08/10 08:44:09;;;;;;;6.47;2.85;;;;;;;28.00;50.99;101322.68;2835926;83;21034;-91
2022/08/10 08:48:32;;;;;;;;;;;;;;;27.96;50.13;101327.42;2852927;82;21679;-94
2022/08/10 08:53:05;;;;;;;2.72;2.37;;;;;;;27.89;50.79;101325.56;2850385;82;20092;-92
2022/08/10 08:57:21;;;;;;;6.58;2.95;;;;;;;27.91;51.07;101324.82;2757589;85;21071;-93
2022/08/10 09:01:55;;;;;;;2.60;2.25;;;;;;;28.03;50.65;101321.42;2737481;87;21132;-92
2022/08/10 09:06:23;;;;;;;4.30;3.22;;;;;;;28.05;49.36;101323.41;2744933;85;21143;-94
2022/08/10 09:11:05;;;;;;;6.67;2.85;;;;;;;28.03;49.59;101316.77;2731082;85;21756;-95
2022/08/10 09:15:50;;;;;;;2.50;2.08;;;;;;;28.00;48.96;101314.48;2721354;87;21082;-92
2022/08/10 09:20:18;;;;;;;6.45;2.62;;;;;;;28.01;49.09;101307.95;2674757;87;21082;-95
2022/08/10 09:24:44;;;;;;;4.10;2.20;;;;;;;27.88;49.22;101301.17;2722034;85;21049;-94
2022/08/10 09:28:46;;;;;;;4.70;1.90;;;;;;;27.88;49.25;101311.59;2696764;86;21960;-94
2022/08/10 09:32:59;;;;;;;2.25;2.00;;;;;;;27.64;48.71;101307.67;2728866;84;21072;-92
2022/08/10 09:37:17;;;;;;;3.27;2.30;;;;;;;27.56;49.73;101307.92;2785458;84;21054;-92
2022/08/10 09:41:55;;;;;;;10.53;3.33;;;;;;;27.51;50.92;101306.69;2786406;84;21061;-92
2022/08/10 09:46:29;;;;;;;3.42;3.05;;;;;;;27.56;49.36;101299.73;2778016;84;21055;-93
2022/08/10 09:51:06;;;;;;;2.37;2.05;;;;;;;27.50;49.04;101299.48;2739360;84;21048;-94
2022/08/10 09:55:49;;;;;;;4.87;3.30;;;;;;;27.59;49.35;101295.20;2765329;84;21078;-93
2022/08/10 10:00:11;;;;;;;5.55;2.20;;;;;;;27.78;49.93;101293.42;2754308;84;21023;-94
2022/08/10 10:04:46;;;;;;;2.52;2.25;;;;;;;27.84;49.22;101293.09;2768789;83;21110;-94
2022/08/10 10:09:09;;;;;;;7.45;2.77;;;;;;;27.92;49.54;101293.69;2773065;84;21118;-94
2022/08/10 10:13:28;;;;;;;2.55;2.22;;;;;;;27.85;48.20;101286.57;2767950;84;21122;-91
2022/08/10 10:17:47;;;;;;;2.60;2.20;;;;;;;28.00;48.60;101285.77;2773525;84;21054;-94
2022/08/10 10:22:03;;;;;;;10.58;2.37;;;;;;;28.15;48.63;101276.44;2774662;84;21601;-92
2022/08/10 10:26:38;;;;;;;3.77;2.85;;;;;;;28.36;47.46;101266.55;2773490;84;21047;-93
2022/08/10 10:30:54;;;;;;;8.80;3.17;;;;;;;28.36;47.46;101266.55;2739124;85;21071;-93
2022/08/10 10:35:03;;;;;;;5.08;2.10;;;;;;;28.48;49.29;101258.98;2768638;84;21024;-93
2022/08/10 10:39:06;;;;;;;2.15;1.98;;;;;;;28.62;48.73;101246.05;2721383;86;21032;-94
2022/08/10 10:43:43;;;;;;;3.45;2.20;;;;;;;28.65;48.08;101241.49;2773813;84;21086;-92
2022/08/10 10:48:09;;;;;;;10.72;3.15;;;;;;;28.52;48.10;101247.92;2729141;85;21056;-93
2022/08/10 10:52:28;;;;;;;2.25;2.02;;;;;;;28.56;48.82;101247.77;2840425;82;21113;-92
2022/08/10 10:56:47;;;;;;;8.03;2.30;;;;;;;28.67;47.96;101242.62;2839619;82;21122;-93
2022/08/10 11:01:12;;;;;;;4.17;2.55;;;;;;;28.65;46.61;101238.76;2839650;82;21062;-93
2022/08/10 11:05:38;;;;;;;2.35;1.55;;;;;;;28.59;46.81;101239.11;2859071;82;21041;-92
2022/08/10 11:09:59;;;;;;;2.50;2.30;;;;;;;28.28;45.59;101247.65;2828458;82;21041;-93
2022/08/10 11:14:21;;;;;;;9.95;2.30;;;;;;;28.01;46.35;101240.14;2844187;82;21546;-93
2022/08/10 11:18:57;;;;;;;1.75;1.30;;;;;;;27.83;46.25;101238.13;2839505;82;21571;-93
2022/08/10 11:23:24;;;;;;;7.25;2.33;;;;;;;27.72;46.01;101239.64;2850045;80;21051;-94
2022/08/10 11:27:34;;;;;;;3.30;1.47;;;;;;;27.74;46.65;101231.55;2818770;82;21091;-94
2022/08/10 11:31:50;;;;;;;4.92;1.77;;;;;;;27.88;45.62;101226.84;2826633;82;21002;-93
2022/08/10 11:35:57;;;;;;;3.50;1.65;;;;;;;28.13;46.27;101225.23;2844351;82;21063;-90
2022/08/10 11:45:10;;;;;;;2.08;1.42;;;;;;;28.46;44.24;101226.90;2831404;83;21697;-61
2022/08/10 11:49:29;;;;;;;4.90;2.17;;;;;;;28.15;44.31;101220.37;2853164;83;21015;-60
2022/08/10 11:54:05;;;;;;;1.50;1.27;;;;;;;28.13;44.93;101212.93;2853347;83;20936;-62
2022/08/10 12:02:49;;;;;;;2.47;1.82;;;;;;;28.52;43.22;101208.24;2852560;81;21019;-62
2022/08/10 12:06:52;;;;;;;3.98;2.37;;;;;;;28.75;43.82;101206.22;2855043;82;20984;-61
2022/08/10 12:10:54;;;;;;;1.65;1.50;;;;;;;28.89;43.24;101197.41;2853014;83;20992;-62
2022/08/10 12:15:34;;;;;;;1.87;1.50;;;;;;;28.93;44.12;101193.14;2853292;83;21050;-60
2022/08/10 12:19:55;;;;;;;2.98;1.77;;;;;;;29.07;44.29;101190.23;2703136;86;21330;-60
2022/08/10 12:24:02;;;;;;;2.70;2.05;;;;;;;28.96;44.12;101189.64;2680183;85;21013;-61
2022/08/10 12:28:14;;;;;;;2.02;1.77;;;;;;;28.67;44.95;101194.72;2671283;88;21043;-60
2022/08/10 12:32:46;;;;;;;4.40;2.02;;;;;;;28.70;43.94;101195.67;2691855;85;21304;-60
2022/08/10 12:36:53;;;;;;;3.20;1.30;;;;;;;28.70;43.94;101195.67;2687955;87;21035;-62
2022/08/10 12:41:23;;;;;;;2.45;1.95;;;;;;;28.67;44.89;101183.77;2692956;88;21064;-61
2022/08/10 12:54:19;;;;;;;3.70;1.95;;;;;;;28.90;43.52;101170.33;2694763;86;21173;-86
2022/08/10 12:58:22;;;;;;;4.75;1.75;;;;;;;28.98;43.31;101162.86;2710659;86;21061;-89
2022/08/10 13:02:31;;;;;;;2.62;2.12;;;;;;;29.11;42.99;101156.39;2719580;86;21047;-89
2022/08/10 13:06:37;;;;;;;1.35;1.10;;;;;;;29.19;42.99;101156.10;2724664;86;21108;-88
2022/08/10 13:10:49;;;;;;;1.72;1.57;;;;;;;29.50;43.59;101158.35;2763334;85;20990;-87
2022/08/10 13:14:56;;;;;;;3.05;1.75;;;;;;;29.74;42.25;101143.36;2686395;87;21100;-89
2022/08/10 13:19:02;;;;;;;2.02;1.77;;;;;;;29.79;42.11;101142.97;2754423;84;21039;-88
2022/08/10 13:23:18;;;;;;;2.42;1.57;;;;;;;29.64;42.87;101145.30;2777920;85;21506;-89
2022/08/10 13:27:31;;;;;;;3.27;2.12;;;;;;;29.21;42.66;101143.83;2776494;85;21087;-88
2022/08/10 13:31:34;;;;;;;2.70;1.65;;;;;;;28.76;42.50;101139.47;2830905;83;21103;-87
2022/08/10 13:35:37;;;;;;;2.92;2.02;;;;;;;28.48;43.80;101133.11;2753831;84;31516;-89
2022/08/10 13:39:45;;;;;;;4.70;1.90;;;;;;;28.31;44.04;101129.61;2770566;84;21043;-87
2022/08/10 13:43:56;;;;;;;2.87;2.05;;;;;;;28.52;45.00;101127.52;2762113;85;21036;-89
2022/08/10 13:48:19;;;;;;;4.10;2.42;;;;;;;28.87;44.92;101114.63;2793821;84;21622;-84
2022/08/10 13:52:25;;;;;;;1.67;1.57;;;;;;;29.09;42.19;101122.41;2806480;83;21060;-84
2022/08/10 13:56:29;;;;;;;1.50;1.40;;;;;;;29.09;42.19;101122.41;2835351;83;21099;-88
2022/08/10 14:00:36;;;;;;;1.32;1.22;;;;;;;28.87;43.44;101112.44;2824995;83;20989;-87
2022/08/10 14:04:46;;;;;;;2.92;1.20;;;;;;;28.60;42.43;101117.64;2833319;83;21629;-89
2022/08/10 14:09:04;;;;;;;1.90;0.88;;;;;;;28.53;41.67;101112.78;2836722;82;21083;-89
2022/08/10 14:13:05;;;;;;;3.27;1.45;;;;;;;28.43;42.63;101111.08;2831863;83;21035;-87
2022/08/10 14:17:08;;;;;;;1.87;1.57;;;;;;;28.30;42.99;101107.94;2815309;83;21059;-89
2022/08/10 14:21:11;;;;;;;3.15;1.45;;;;;;;28.27;42.57;101109.77;2814876;84;21086;-88
2022/08/10 14:25:15;;;;;;;3.47;1.90;;;;;;;28.31;42.99;101102.26;2835326;83;21095;-86
2022/08/10 14:29:20;;;;;;;6.90;1.92;;;;;;;28.38;43.18;101104.08;2809088;83;21028;-86
2022/08/10 14:33:24;;;;;;;1.85;1.55;;;;;;;28.52;43.18;101102.89;2783479;83;21677;-89
2022/08/10 14:37:42;;;;;;;1.45;1.27;;;;;;;28.71;43.63;101093.33;2764453;83;21895;-89
2022/08/10 14:41:48;;;;;;;1.92;1.80;;;;;;;28.78;43.07;101099.55;2849689;83;21011;-91
2022/08/10 14:46:03;;;;;;;2.55;1.47;;;;;;;28.73;42.49;101059.73;2844886;83;21025;-88
2022/08/10 14:50:06;;;;;;;3.75;1.47;;;;;;;29.01;41.75;101089.32;2843477;82;21114;-89
2022/08/10 14:54:12;;;;;;;1.80;1.30;;;;;;;29.11;42.17;101081.92;2839342;82;21025;-90
2022/08/10 14:58:23;;;;;;;3.02;1.77;;;;;;;29.12;42.36;101084.12;2829671;83;21038;-88
2022/08/10 15:02:26;;;;;;;10.25;8.65;;;;;;;29.06;42.13;101087.23;2835358;83;20972;-85
2022/08/10 15:06:33;;;;;;;5.95;2.30;;;;;;;29.11;41.46;101080.56;2850499;82;21078;-86
2022/08/10 15:10:36;;;;;;;6.10;2.47;;;;;;;29.31;41.42;101069.86;2829139;84;21072;-89
2022/08/10 15:14:42;;;;;;;3.60;1.75;;;;;;;29.48;42.33;101068.69;2828626;82;21067;-90
2022/08/10 15:18:47;;;;;;;1.10;0.93;;;;;;;29.30;41.53;101073.12;2823353;83;21047;-89
2022/08/10 15:22:55;;;;;;;3.20;1.35;;;;;;;29.03;41.44;101071.27;2828532;82;21051;-90
2022/08/10 15:26:59;;;;;;;2.90;2.05;;;;;;;28.71;42.05;101067.33;2783406;83;21036;-91
2022/08/10 15:31:02;;;;;;;2.90;1.37;;;;;;;28.60;41.84;101078.51;2725956;86;21078;-89
2022/08/10 15:39:31;;;;;;;1.22;1.12;;;;;;;28.61;42.04;101077.44;2808900;84;21056;-91
2022/08/10 15:43:34;;;;;;;3.00;1.30;;;;;;;28.30;42.07;101067.76;2752160;84;21057;-90
2022/08/10 15:47:41;;;;;;;8.10;1.93;;;;;;;28.35;42.01;101073.38;2828623;83;21091;-92
2022/08/10 15:51:59;;;;;;;5.60;2.47;;;;;;;28.44;42.59;101062.98;2815562;83;21098;-91
2022/08/10 15:56:15;;;;;;;1.30;1.12;;;;;;;28.42;41.64;101061.53;2625741;88;21052;-91
2022/08/10 16:00:18;;;;;;;1.87;1.55;;;;;;;28.44;41.99;101062.98;2694432;87;21043;-92
2022/08/10 16:04:28;;;;;;;2.25;1.40;;;;;;;28.32;41.98;101019.13;2631044;88;21060;-90
2022/08/10 16:08:46;;;;;;;1.92;1.57;;;;;;;28.55;40.95;101057.80;2632258;89;21048;-87
2022/08/10 16:12:56;;;;;;;11.25;1.82;;;;;;;28.49;42.59;101031.66;2643644;89;21091;-88
2022/08/10 16:16:59;;;;;;;1.37;1.05;;;;;;;28.66;42.32;101058.42;2668701;87;21598;-90
2022/08/10 16:21:07;;;;;;;3.17;1.60;;;;;;;28.56;42.71;101053.48;2653283;89;21107;-90
2022/08/10 16:25:13;;;;;;;3.12;1.98;;;;;;;28.33;43.54;101055.52;2629583;89;21103;-88
2022/08/10 16:29:22;;;;;;;5.53;1.60;;;;;;;28.04;43.66;101050.48;2698104;85;21150;-91
2022/08/10 16:33:28;;;;;;;2.37;1.07;;;;;;;27.80;45.30;101053.01;2756575;85;21016;-90
2022/08/10 16:37:36;;;;;;;2.25;1.30;;;;;;;27.57;45.65;101045.94;2805065;82;21082;-84
2022/08/10 16:41:41;;;;;;;2.58;1.82;;;;;;;27.37;46.18;101046.87;2744887;85;21023;-89
2022/08/10 16:45:49;;;;;;;1.52;1.42;;;;;;;27.20;46.71;101056.94;2725741;86;22001;-89
2022/08/10 16:49:54;;;;;;;3.10;2.45;;;;;;;27.07;47.29;101047.45;2829246;83;21635;-88
2022/08/10 16:54:00;;;;;;;4.00;1.55;;;;;;;26.98;47.80;101041.94;2752833;84;21000;-88
2022/08/10 16:58:02;;;;;;;;;;;;;;;26.86;47.30;101039.05;2698947;85;21026;-92
2022/08/10 17:02:05;;;;;;;3.80;2.27;;;;;;;26.79;47.14;101042.59;2775267;84;20113;-90
2022/08/10 17:06:12;;;;;;;3.08;2.58;;;;;;;26.76;47.65;101044.94;2713727;87;21052;-91
2022/08/10 17:10:17;;;;;;;5.28;1.52;;;;;;;26.68;47.94;101036.97;2714935;87;21052;-88
2022/08/10 17:14:25;;;;;;;2.22;1.65;;;;;;;26.62;48.43;101039.52;2749284;86;21112;-88
2022/08/10 17:18:28;;;;;;;2.08;1.20;;;;;;;26.57;48.66;101045.30;2745677;86;21034;-89
2022/08/10 17:22:34;;;;;;;4.28;2.25;;;;;;;26.46;48.69;101039.47;2762733;85;21020;-86
2022/08/10 17:26:37;;;;;;;1.70;1.60;;;;;;;26.37;49.18;101038.85;2767098;86;21076;-90
2022/08/10 17:30:48;;;;;;;4.12;1.87;;;;;;;26.28;49.53;101042.84;2761956;84;20978;-89
2022/08/10 17:34:55;;;;;;;3.62;2.25;;;;;;;26.16;50.17;101045.88;2728982;87;21036;-87
2022/08/10 17:38:59;;;;;;;2.95;1.95;;;;;;;26.06;50.86;101044.95;2730984;86;21071;-83
2022/08/10 17:43:02;;;;;;;3.45;2.12;;;;;;;25.95;51.44;101040.44;2729217;86;21032;-87
2022/08/10 17:47:08;;;;;;;5.28;2.02;;;;;;;25.86;51.69;101040.85;2727576;86;21034;-90
2022/08/10 17:51:14;;;;;;;2.33;1.72;;;;;;;25.71;51.65;101039.16;2727916;86;21131;-88
2022/08/10 17:55:17;;;;;;;4.67;2.05;;;;;;;25.64;51.56;101041.05;2807220;83;21000;-87
2022/08/10 17:59:22;;;;;;;4.97;1.45;;;;;;;25.55;51.75;101042.28;2822259;84;21000;-87
2022/08/10 18:03:31;;;;;;;4.50;1.55;;;;;;;25.45;52.11;101035.84;2750861;84;21039;-87
2022/08/10 18:07:39;;;;;;;4.08;1.95;;;;;;;25.34;52.50;101038.66;2795220;84;20980;-87
2022/08/10 18:11:46;;;;;;;4.20;1.98;;;;;;;25.22;52.76;101043.35;2790626;84;21266;-88
2022/08/10 18:15:49;;;;;;;2.60;2.12;;;;;;;25.11;52.88;101043.94;2816091;83;21028;-87
2022/08/10 18:19:55;;;;;;;2.60;1.65;;;;;;;24.99;53.16;101049.66;2790296;84;21088;-87
2022/08/10 18:24:08;;;;;;;5.28;2.00;;;;;;;24.88;53.40;101058.70;2811557;84;21087;-84
2022/08/10 18:28:17;;;;;;;4.37;2.27;;;;;;;24.75;53.83;101047.25;2803098;84;21810;-88
2022/08/10 18:32:23;;;;;;;3.85;2.37;;;;;;;24.59;53.78;101051.12;2743008;85;21043;-88
2022/08/10 18:36:26;;;;;;;3.08;2.62;;;;;;;24.44;54.22;101056.66;2816704;84;21107;-88
2022/08/10 18:40:28;;;;;;;3.62;2.37;;;;;;;24.30;54.55;101058.45;2831761;84;21064;-87
2022/08/10 18:44:40;;;;;;;14.58;3.35;;;;;;;24.18;54.58;101064.13;2843215;83;21059;-85
2022/08/10 18:48:52;;;;;;;8.85;2.87;;;;;;;24.07;54.94;101061.41;2800291;83;21058;-90
2022/08/10 18:53:02;;;;;;;3.00;2.17;;;;;;;23.93;55.39;101068.08;2730202;84;21025;-87
2022/08/10 18:57:18;;;;;;;8.25;2.83;;;;;;;23.80;56.05;101061.16;2721268;85;21551;-88
2022/08/10 19:01:56;;;;;;;3.05;2.35;;;;;;;23.64;56.38;101062.27;2719070;85;21077;-87
2022/08/10 19:06:29;;;;;;;6.67;2.60;;;;;;;23.49;56.37;101071.30;2772615;84;21711;-88
2022/08/10 19:10:56;;;;;;;19.70;5.28;;;;;;;23.36;56.76;101063.00;2775244;85;21021;-84
2022/08/10 19:15:39;;;;;;;4.22;3.27;;;;;;;23.20;57.70;101078.48;2773191;84;21028;-87
2022/08/10 19:20:04;;;;;;;8.65;2.52;;;;;;;23.05;57.81;101074.95;2751179;85;21112;-87
2022/08/10 19:24:26;;;;;;;8.63;3.37;;;;;;;22.90;58.13;101083.93;2783615;84;21016;-88
2022/08/10 19:28:42;;;;;;;6.60;4.70;;;;;;;22.75;58.49;101081.23;2720722;87;21687;-86
2022/08/10 19:33:35;;;;;;;5.35;4.42;;;;;;;22.59;60.43;101082.23;2723387;85;21126;-87
2022/08/10 19:37:59;;;;;;;6.87;5.28;;;;;;;22.33;60.93;101082.67;2724140;86;21669;-88
2022/08/10 19:42:19;;;;;;;7.67;5.70;;;;;;;22.04;63.50;101079.70;2716035;85;21083;-84
2022/08/10 19:46:38;;;;;;;12.78;6.67;;;;;;;21.77;62.94;101073.81;2716786;85;21483;-89
2022/08/10 19:50:54;;;;;;;9.78;6.22;;;;;;;21.60;63.69;101072.21;2735220;85;21134;-87
2022/08/10 19:55:16;;;;;;;10.32;7.00;;;;;;;21.44;63.73;101067.75;2737902;86;21119;-87